RJSF

Fukushima Airport

Airport
ICAO code
RJSF
IATA Code
FKS
Summary
ICAO Region
APAC
ICAO Territory
Location

Sukagawa, Fukushima Prefecture

Serving
Sukagawa
Elevation
1220 ft
Coordinates
37° 13' 42" N , 140° 25' 43" E
KCC
Metar
Observation
RJSF 301010Z 33007KT 1500 R01/P2000N -SHSN FEW005 SCT008 BKN015 M01/M02 Q1011 RMK 1ST005 4ST008 7CU015 A2985
Station
Fukushima Airport
Date/Time
2023-01-30 10:10:00
Wind direction
330°
Wind speed
07 kts
Lowest cloud amount
few clouds
Temperature
1°C
Dew point
0°C
Humidity
93%
QNH
1011 hPa
Weather condition
n/a

Airport serving northern and central Fukushima Prefecture, Japan, located in the city of Sukagawa. The airport is located 19.4 km southeast of Kōriyama.

Climatology

Humid Sub-tropical climate (Köppen climate classification Cfa)

Runways

Designator Length Width Surface Rops
1/19 2500 60 ASP Yes/Yes

Airport map

Aerial View

SKYbrary Partners:

Safety knowledge contributed by: